createdAt,value
2023-02-22T00:01:36.141Z,4.10
2023-02-22T00:04:06.353Z,4.10
2023-02-22T00:06:33.675Z,4.20
2023-02-22T00:09:02.474Z,4.20
2023-02-22T00:11:31.699Z,4.50
2023-02-22T00:13:59.070Z,4.60
2023-02-22T00:16:26.827Z,4.60
2023-02-22T00:18:54.546Z,4.80
2023-02-22T00:21:22.244Z,4.80
2023-02-22T00:23:49.944Z,4.90
2023-02-22T00:26:20.960Z,5.00
2023-02-22T00:28:53.079Z,4.90
2023-02-22T00:31:21.329Z,4.70
2023-02-22T00:33:48.717Z,4.60
2023-02-22T00:36:15.977Z,4.40
2023-02-22T00:38:43.260Z,4.20
2023-02-22T00:41:11.768Z,3.80
2023-02-22T00:43:39.026Z,3.20
2023-02-22T00:46:06.329Z,3.00
2023-02-22T00:48:34.868Z,3.10
2023-02-22T00:51:02.064Z,3.40
2023-02-22T00:53:29.279Z,3.70
2023-02-22T00:55:56.636Z,3.80
2023-02-22T00:58:24.431Z,3.90
2023-02-22T01:00:51.753Z,3.90
2023-02-22T01:03:20.599Z,3.90
2023-02-22T01:05:48.062Z,4.00
2023-02-22T01:08:16.908Z,4.00
2023-02-22T01:10:44.864Z,4.10
2023-02-22T01:13:13.164Z,4.20
2023-02-22T01:15:44.928Z,4.20
2023-02-22T01:18:12.957Z,4.30
2023-02-22T01:20:40.565Z,4.30
2023-02-22T01:23:08.186Z,4.20
2023-02-22T01:25:36.270Z,4.00
2023-02-22T01:28:06.169Z,3.70
2023-02-22T01:30:36.170Z,3.20
2023-02-22T01:33:06.166Z,2.80
2023-02-22T01:35:36.738Z,2.70
2023-02-22T01:38:04.302Z,2.60
2023-02-22T01:40:43.124Z,2.70
2023-02-22T01:43:23.058Z,2.90
2023-02-22T01:46:21.075Z,3.00
2023-02-22T01:49:00.747Z,3.10
2023-02-22T01:51:50.212Z,3.10
2023-02-22T01:54:23.593Z,3.10
2023-02-22T01:57:14.960Z,3.00
2023-02-22T01:59:51.036Z,2.80
2023-02-22T02:02:21.741Z,2.50
2023-02-22T02:04:49.571Z,2.60
2023-02-22T02:07:21.221Z,2.50
2023-02-22T02:10:00.382Z,2.50
2023-02-22T02:12:34.288Z,2.50
2023-02-22T02:15:20.250Z,2.60
2023-02-22T02:17:49.246Z,2.60
2023-02-22T02:20:53.783Z,2.60
2023-02-22T02:24:02.626Z,2.70
2023-02-22T02:26:41.771Z,2.70
2023-02-22T02:29:27.372Z,2.70
2023-02-22T02:31:57.650Z,2.70
2023-02-22T02:34:57.696Z,2.80
2023-02-22T02:37:33.726Z,2.90
2023-02-22T02:40:11.530Z,2.90
2023-02-22T02:42:49.440Z,2.90
2023-02-22T02:45:23.577Z,2.90
2023-02-22T02:47:58.893Z,2.80
2023-02-22T02:50:56.627Z,2.60
2023-02-22T02:53:30.650Z,2.60
2023-02-22T02:55:59.994Z,2.50
2023-02-22T02:58:27.675Z,2.40
2023-02-22T03:01:01.153Z,2.30
2023-02-22T03:03:53.732Z,2.20
2023-02-22T03:06:49.406Z,2.30
2023-02-22T03:09:35.957Z,2.30
2023-02-22T03:12:09.013Z,2.30
2023-02-22T03:14:50.766Z,2.30
2023-02-22T03:17:36.765Z,2.40
2023-02-22T03:20:31.955Z,2.40
2023-02-22T03:23:24.827Z,2.60
2023-02-22T03:26:01.376Z,2.60
2023-02-22T03:28:30.184Z,2.60
2023-02-22T03:31:11.036Z,2.40
2023-02-22T03:33:46.166Z,2.20
2023-02-22T03:36:25.082Z,2.00
2023-02-22T03:38:57.220Z,2.00
2023-02-22T03:41:26.019Z,1.90
2023-02-22T03:44:03.944Z,1.80
2023-02-22T03:46:32.731Z,1.80
2023-02-22T03:49:05.518Z,1.90
2023-02-22T03:51:33.048Z,1.90
2023-02-22T03:54:00.294Z,1.90
2023-02-22T03:56:47.504Z,1.90
2023-02-22T03:59:15.012Z,2.00
2023-02-22T04:01:42.252Z,2.00
2023-02-22T04:04:09.462Z,2.00
2023-02-22T04:06:36.678Z,2.10
2023-02-22T04:09:04.049Z,2.10
2023-02-22T04:11:31.286Z,2.10
2023-02-22T04:13:58.778Z,2.10
2023-02-22T04:16:25.982Z,2.10
2023-02-22T04:18:53.296Z,2.10
2023-02-22T04:21:20.574Z,2.10
2023-02-22T04:23:47.794Z,2.00
2023-02-22T04:26:15.095Z,1.90
2023-02-22T04:28:42.327Z,2.00
2023-02-22T04:31:09.630Z,2.00
2023-02-22T04:33:36.890Z,2.10
2023-02-22T04:36:04.489Z,2.20
2023-02-22T04:38:31.737Z,2.10
2023-02-22T04:40:59.069Z,2.00
2023-02-22T04:43:26.990Z,2.00
2023-02-22T04:45:54.664Z,2.00
2023-02-22T04:48:21.910Z,2.10
2023-02-22T04:50:49.454Z,2.00
2023-02-22T04:53:16.722Z,1.90
2023-02-22T04:55:43.926Z,1.90
2023-02-22T04:58:11.248Z,1.80
2023-02-22T05:00:38.492Z,1.70
2023-02-22T05:03:05.834Z,1.60
2023-02-22T05:05:33.035Z,1.60
2023-02-22T05:08:00.253Z,1.60
2023-02-22T05:10:27.727Z,1.70
2023-02-22T05:12:55.054Z,1.80
2023-02-22T05:15:25.338Z,1.80
2023-02-22T05:17:53.737Z,1.80
2023-02-22T05:20:30.274Z,1.80
2023-02-22T05:23:00.008Z,1.80
2023-02-22T05:25:28.114Z,1.80
2023-02-22T05:27:59.777Z,1.70
2023-02-22T05:30:30.621Z,1.60
2023-02-22T05:32:59.361Z,1.70
2023-02-22T05:35:27.354Z,2.60
2023-02-22T05:37:54.758Z,2.20
2023-02-22T05:40:25.328Z,2.00
2023-02-22T05:42:53.508Z,1.80
2023-02-22T05:45:22.970Z,1.70
2023-02-22T05:47:51.892Z,1.60
2023-02-22T05:50:20.621Z,1.50
2023-02-22T05:52:48.907Z,1.40
2023-02-22T05:55:18.849Z,1.40
2023-02-22T05:57:46.326Z,1.30
2023-02-22T06:00:18.318Z,1.30
2023-02-22T06:02:45.762Z,1.20
2023-02-22T06:05:14.015Z,1.30
2023-02-22T06:07:41.235Z,1.40
2023-02-22T06:10:08.622Z,1.40
2023-02-22T06:12:35.843Z,1.40
2023-02-22T06:15:03.178Z,1.60
2023-02-22T06:17:30.619Z,1.60
2023-02-22T06:19:58.011Z,1.70
2023-02-22T06:22:25.218Z,1.70
2023-02-22T06:24:54.746Z,1.70
2023-02-22T06:27:22.261Z,1.80
2023-02-22T06:29:49.601Z,1.80
2023-02-22T06:32:16.938Z,1.80
2023-02-22T06:34:44.162Z,1.90
2023-02-22T06:37:11.665Z,1.90
2023-02-22T06:39:38.892Z,2.00
2023-02-22T06:42:06.719Z,2.00
2023-02-22T06:44:33.987Z,2.00
2023-02-22T06:47:01.613Z,2.10
2023-02-22T06:49:28.851Z,2.20
2023-02-22T06:51:56.455Z,2.30
2023-02-22T06:54:24.098Z,2.50
2023-02-22T06:56:51.315Z,2.60
2023-02-22T06:59:18.632Z,2.70
2023-02-22T07:01:46.099Z,2.80
2023-02-22T07:04:13.349Z,2.90
2023-02-22T07:06:46.991Z,3.00
2023-02-22T07:09:15.898Z,3.20
2023-02-22T07:11:43.374Z,3.30
2023-02-22T07:14:10.738Z,3.30
2023-02-22T07:16:38.066Z,3.40
2023-02-22T07:19:05.344Z,3.60
2023-02-22T07:21:32.560Z,3.60
2023-02-22T07:23:59.763Z,3.70
2023-02-22T07:26:27.647Z,3.80
2023-02-22T07:28:55.103Z,3.90
2023-02-22T07:31:22.394Z,4.00
2023-02-22T07:33:49.722Z,4.10
2023-02-22T07:36:17.960Z,4.20
2023-02-22T07:38:45.865Z,4.30
2023-02-22T07:41:13.633Z,4.30
2023-02-22T07:43:40.915Z,4.40
2023-02-22T07:46:08.124Z,4.40
2023-02-22T07:48:35.474Z,4.50
2023-02-22T07:51:02.703Z,4.60
2023-02-22T07:53:33.526Z,4.70
2023-02-22T07:56:03.407Z,4.70
2023-02-22T07:58:31.886Z,4.80
2023-02-22T08:01:04.318Z,5.00
2023-02-22T08:03:38.189Z,5.10
2023-02-22T08:06:07.297Z,5.20
2023-02-22T08:08:34.705Z,5.30
2023-02-22T08:11:02.388Z,5.50
2023-02-22T08:13:29.758Z,5.60
2023-02-22T08:15:57.094Z,5.80
2023-02-22T08:18:25.511Z,5.90
2023-02-22T08:20:53.657Z,6.00
2023-02-22T08:23:22.949Z,6.10
2023-02-22T08:25:50.228Z,6.20
2023-02-22T08:28:20.427Z,6.30
2023-02-22T08:30:47.720Z,6.40
2023-02-22T08:33:19.574Z,6.50
2023-02-22T08:35:49.746Z,6.60
2023-02-22T08:38:27.057Z,6.80
2023-02-22T08:40:54.557Z,7.00
2023-02-22T08:43:22.839Z,7.10
2023-02-22T08:45:51.983Z,7.20
2023-02-22T08:48:19.787Z,7.30
2023-02-22T08:50:47.184Z,7.50
2023-02-22T08:53:16.316Z,7.60
2023-02-22T08:55:43.669Z,7.70
2023-02-22T08:58:12.189Z,7.80
2023-02-22T09:00:40.586Z,7.90
2023-02-22T09:03:11.908Z,8.10
2023-02-22T09:05:59.780Z,8.20
2023-02-22T09:08:45.432Z,8.40
2023-02-22T09:11:31.081Z,8.50
2023-02-22T09:13:58.471Z,8.70
2023-02-22T09:16:26.018Z,8.80
2023-02-22T09:18:53.290Z,8.90
2023-02-22T09:21:20.579Z,9.00
2023-02-22T09:23:48.218Z,9.10
2023-02-22T09:26:18.316Z,9.10
2023-02-22T09:28:45.596Z,9.20
2023-02-22T09:31:13.207Z,9.30
2023-02-22T09:33:41.782Z,9.40
2023-02-22T09:36:09.229Z,9.50
2023-02-22T09:38:36.523Z,9.60
2023-02-22T09:41:36.266Z,9.70
2023-02-22T09:44:15.658Z,9.80
2023-02-22T09:46:45.986Z,9.90
2023-02-22T09:49:16.048Z,10.00
2023-02-22T09:52:01.459Z,10.10
2023-02-22T09:54:52.192Z,10.10
2023-02-22T09:57:35.341Z,10.30
2023-02-22T10:00:15.871Z,10.40
2023-02-22T10:03:16.868Z,10.50
2023-02-22T10:05:50.771Z,10.60
2023-02-22T10:08:20.179Z,10.80
2023-02-22T10:10:54.268Z,10.80
2023-02-22T10:13:45.622Z,10.70
2023-02-22T10:16:36.619Z,10.70
2023-02-22T10:19:38.496Z,10.80
2023-02-22T10:22:30.831Z,11.00
2023-02-22T10:25:14.725Z,11.00
2023-02-22T10:28:06.862Z,11.10
2023-02-22T10:30:38.454Z,11.10
2023-02-22T10:33:08.429Z,11.10
2023-02-22T10:35:38.072Z,11.10
2023-02-22T10:38:12.571Z,11.30
2023-02-22T10:40:43.755Z,11.40
2023-02-22T10:43:14.071Z,11.30
2023-02-22T10:45:41.771Z,11.30
2023-02-22T10:48:13.996Z,11.50
2023-02-22T10:50:44.148Z,11.50
2023-02-22T10:53:12.257Z,11.60
2023-02-22T10:56:05.499Z,11.60
2023-02-22T10:58:50.139Z,11.60
2023-02-22T11:01:32.640Z,11.70
2023-02-22T11:04:18.888Z,11.70
2023-02-22T11:07:08.086Z,11.80
2023-02-22T11:09:59.347Z,11.90
2023-02-22T11:12:30.203Z,12.00
2023-02-22T11:14:58.421Z,12.20
2023-02-22T11:17:34.188Z,12.20
2023-02-22T11:20:01.699Z,12.10
2023-02-22T11:22:37.610Z,12.20
2023-02-22T11:25:07.627Z,12.30
2023-02-22T11:27:40.373Z,12.30
2023-02-22T11:30:32.684Z,12.40
2023-02-22T11:33:16.906Z,12.50
2023-02-22T11:35:52.833Z,12.60
2023-02-22T11:38:36.831Z,12.70
2023-02-22T11:41:26.893Z,12.80
2023-02-22T11:43:56.674Z,12.90
2023-02-22T11:46:32.158Z,13.10
2023-02-22T11:49:12.977Z,12.90
2023-02-22T11:52:06.382Z,12.90
2023-02-22T11:54:59.794Z,13.00
2023-02-22T11:58:01.609Z,12.90
2023-02-22T12:00:59.032Z,13.20
2023-02-22T12:03:44.769Z,13.20
2023-02-22T12:06:40.517Z,13.20
2023-02-22T12:09:14.125Z,13.20
2023-02-22T12:11:57.447Z,13.10
2023-02-22T12:14:34.004Z,13.20
2023-02-22T12:17:20.551Z,13.30
2023-02-22T12:19:51.762Z,13.30
2023-02-22T12:22:53.249Z,13.20
2023-02-22T12:25:25.038Z,13.30
2023-02-22T12:28:23.633Z,13.40
2023-02-22T12:31:21.312Z,13.40
2023-02-22T12:34:11.864Z,13.60
2023-02-22T12:36:49.708Z,13.50
2023-02-22T12:39:53.156Z,13.50
2023-02-22T12:42:39.496Z,13.60
2023-02-22T12:45:22.658Z,13.70
2023-02-22T12:48:01.123Z,13.70
2023-02-22T12:50:34.545Z,13.70
2023-02-22T12:53:23.866Z,13.50
2023-02-22T12:56:01.696Z,13.60
2023-02-22T12:59:00.280Z,13.60
2023-02-22T13:01:34.572Z,13.80
2023-02-22T13:04:19.482Z,13.80
2023-02-22T13:06:53.872Z,13.80
2023-02-22T13:09:36.105Z,13.70
2023-02-22T13:12:23.292Z,13.60
2023-02-22T13:15:10.794Z,13.70
2023-02-22T13:17:55.012Z,13.90
2023-02-22T13:20:51.442Z,13.90
2023-02-22T13:23:35.979Z,13.80
2023-02-22T13:26:20.569Z,13.80
2023-02-22T13:29:13.128Z,13.80
2023-02-22T13:32:02.800Z,13.70
2023-02-22T13:34:48.731Z,13.80
2023-02-22T13:37:53.376Z,13.90
2023-02-22T13:40:26.861Z,14.00
2023-02-22T13:43:40.683Z,14.10
2023-02-22T13:46:12.798Z,14.20
2023-02-22T13:49:17.500Z,14.00
2023-02-22T13:52:28.794Z,14.00
2023-02-22T13:55:01.330Z,14.00
2023-02-22T13:57:51.598Z,14.00
2023-02-22T14:00:23.002Z,13.90
2023-02-22T14:03:30.135Z,14.00
2023-02-22T14:06:00.994Z,14.10
2023-02-22T14:08:28.147Z,14.00
2023-02-22T14:10:55.889Z,14.00
2023-02-22T14:13:26.861Z,14.00
2023-02-22T14:16:00.429Z,14.20
2023-02-22T14:18:42.432Z,14.20
2023-02-22T14:21:22.320Z,14.20
2023-02-22T14:23:52.149Z,14.10
2023-02-22T14:26:32.919Z,14.20
2023-02-22T14:29:08.368Z,14.10
2023-02-22T14:31:43.463Z,14.10
2023-02-22T14:34:31.325Z,14.20
2023-02-22T14:37:05.241Z,14.20
2023-02-22T14:39:51.193Z,14.10
2023-02-22T14:42:24.399Z,14.00
2023-02-22T14:44:54.736Z,13.90
2023-02-22T14:47:29.642Z,13.70
2023-02-22T14:50:08.666Z,13.70
2023-02-22T14:52:39.868Z,13.70
2023-02-22T14:55:26.285Z,13.60
2023-02-22T14:58:00.284Z,13.60
2023-02-22T15:00:40.056Z,13.50
2023-02-22T15:03:29.280Z,13.50
2023-02-22T15:06:00.197Z,13.50
2023-02-22T15:08:28.691Z,13.40
2023-02-22T15:10:55.930Z,13.40
2023-02-22T15:13:32.928Z,13.50
2023-02-22T15:16:08.011Z,13.60
2023-02-22T15:18:49.429Z,13.70
2023-02-22T15:21:21.188Z,13.80
2023-02-22T15:23:54.738Z,13.80
2023-02-22T15:26:38.772Z,13.70
2023-02-22T15:29:24.809Z,13.60
2023-02-22T15:31:56.574Z,13.40
2023-02-22T15:34:33.906Z,13.30
2023-02-22T15:37:25.605Z,13.10
2023-02-22T15:39:59.610Z,13.00
2023-02-22T15:42:30.452Z,12.90
2023-02-22T15:44:58.253Z,12.80
2023-02-22T15:47:30.992Z,12.60
2023-02-22T15:50:25.725Z,12.60
2023-02-22T15:52:58.091Z,12.40
2023-02-22T15:55:28.076Z,12.30
2023-02-22T15:57:58.568Z,12.20
2023-02-22T16:00:38.112Z,12.10
2023-02-22T16:03:09.431Z,12.00
2023-02-22T16:05:49.940Z,11.90
2023-02-22T16:08:23.743Z,11.70
2023-02-22T16:11:14.885Z,11.60
2023-02-22T16:14:23.590Z,11.40
2023-02-22T16:17:24.904Z,11.30
2023-02-22T16:20:14.220Z,11.20
2023-02-22T16:22:49.239Z,11.00
2023-02-22T16:25:19.680Z,10.90
2023-02-22T16:28:32.720Z,10.90
2023-02-22T16:31:00.497Z,10.80
2023-02-22T16:33:33.901Z,10.70
2023-02-22T16:36:06.358Z,10.60
2023-02-22T16:38:34.193Z,10.50
2023-02-22T16:41:01.531Z,10.40
2023-02-22T16:43:31.605Z,10.30
2023-02-22T16:46:01.694Z,10.30
2023-02-22T16:48:31.030Z,10.20
2023-02-22T16:51:07.563Z,10.10
2023-02-22T16:53:35.042Z,10.00
2023-02-22T16:56:05.559Z,9.80
2023-02-22T16:58:36.775Z,9.70
2023-02-22T17:01:04.254Z,9.70
2023-02-22T17:03:31.463Z,9.60
2023-02-22T17:05:58.910Z,9.60
2023-02-22T17:08:26.139Z,9.50
2023-02-22T17:10:56.837Z,9.50
2023-02-22T17:13:27.302Z,9.40
2023-02-22T17:15:55.597Z,9.30
2023-02-22T17:18:24.847Z,9.20
2023-02-22T17:20:53.074Z,9.00
2023-02-22T17:23:21.085Z,8.90
2023-02-22T17:26:06.334Z,8.80
2023-02-22T17:28:52.161Z,8.70
2023-02-22T17:31:38.197Z,8.60
2023-02-22T17:34:06.636Z,8.60
2023-02-22T17:36:36.479Z,8.50
2023-02-22T17:39:05.078Z,8.50
2023-02-22T17:41:32.447Z,8.40
2023-02-22T17:43:59.913Z,8.30
2023-02-22T17:46:27.281Z,8.20
2023-02-22T17:48:54.740Z,8.10
2023-02-22T17:51:24.778Z,8.00
2023-02-22T17:53:52.384Z,7.90
2023-02-22T17:56:20.308Z,7.90
2023-02-22T17:58:55.683Z,7.80
2023-02-22T18:01:27.168Z,7.70
2023-02-22T18:03:57.123Z,7.70
2023-02-22T18:06:27.115Z,7.50
2023-02-22T18:08:58.927Z,7.50
2023-02-22T18:11:28.794Z,7.40
2023-02-22T18:13:57.869Z,7.40
2023-02-22T18:16:26.764Z,7.30
2023-02-22T18:18:55.218Z,7.30
2023-02-22T18:21:23.268Z,7.30
2023-02-22T18:23:50.612Z,7.20
2023-02-22T18:26:19.985Z,7.10
2023-02-22T18:28:50.592Z,7.10
2023-02-22T18:31:20.532Z,7.00
2023-02-22T18:33:51.191Z,7.00
2023-02-22T18:36:23.173Z,6.80
2023-02-22T18:38:53.168Z,6.60
2023-02-22T18:41:25.404Z,6.60
2023-02-22T18:43:55.333Z,6.50
2023-02-22T18:46:25.121Z,6.60
2023-02-22T18:48:54.727Z,6.50
2023-02-22T18:51:22.709Z,6.50
2023-02-22T18:53:50.802Z,6.50
2023-02-22T18:56:36.628Z,6.30
2023-02-22T18:59:21.959Z,6.30
2023-02-22T19:01:49.411Z,6.30
2023-02-22T19:04:18.296Z,6.20
2023-02-22T19:06:48.419Z,6.20
2023-02-22T19:09:16.495Z,6.30
2023-02-22T19:11:48.364Z,6.20
2023-02-22T19:14:17.387Z,6.20
2023-02-22T19:16:47.362Z,6.10
2023-02-22T19:19:20.816Z,5.90
2023-02-22T19:21:49.919Z,5.90
2023-02-22T19:24:20.857Z,5.90
2023-02-22T19:26:51.686Z,5.90
2023-02-22T19:29:22.334Z,5.90
2023-02-22T19:31:54.271Z,5.80
2023-02-22T19:34:21.952Z,5.80
2023-02-22T19:36:49.678Z,5.90
2023-02-22T19:39:19.767Z,5.90
2023-02-22T19:41:47.534Z,5.90
2023-02-22T19:44:14.838Z,5.90
2023-02-22T19:46:42.275Z,5.70
2023-02-22T19:49:09.611Z,5.70
2023-02-22T19:51:37.568Z,5.70
2023-02-22T19:54:08.898Z,5.70
2023-02-22T19:56:36.238Z,5.60
2023-02-22T19:59:09.585Z,5.60
2023-02-22T20:01:37.334Z,5.50
2023-02-22T20:04:07.054Z,5.40
2023-02-22T20:06:40.398Z,5.50
2023-02-22T20:09:11.387Z,5.50
2023-02-22T20:11:38.737Z,5.50
2023-02-22T20:14:06.547Z,5.40
2023-02-22T20:16:53.548Z,5.30
2023-02-22T20:19:32.627Z,5.30
2023-02-22T20:22:00.467Z,5.30
2023-02-22T20:24:27.828Z,5.40
2023-02-22T20:26:57.206Z,5.40
2023-02-22T20:29:43.000Z,5.30
2023-02-22T20:32:14.856Z,5.30
2023-02-22T20:34:46.400Z,5.30
2023-02-22T20:37:14.595Z,5.30
2023-02-22T20:39:42.647Z,5.20
2023-02-22T20:42:11.681Z,5.30
2023-02-22T20:44:39.027Z,5.30
2023-02-22T20:47:06.471Z,5.30
2023-02-22T20:49:33.810Z,5.30
2023-02-22T20:52:01.218Z,5.10
2023-02-22T20:54:31.352Z,5.00
2023-02-22T20:56:58.672Z,4.90
2023-02-22T20:59:28.967Z,4.90
2023-02-22T21:01:56.272Z,4.80
2023-02-22T21:04:23.738Z,4.80
2023-02-22T21:06:52.067Z,4.70
2023-02-22T21:09:21.565Z,4.70
2023-02-22T21:11:49.127Z,4.80
2023-02-22T21:14:19.303Z,4.90
2023-02-22T21:16:48.706Z,4.90
2023-02-22T21:19:27.860Z,4.80
2023-02-22T21:22:01.490Z,4.80
2023-02-22T21:24:29.768Z,4.90
2023-02-22T21:26:59.179Z,4.90
2023-02-22T21:29:28.218Z,5.00
2023-02-22T21:31:58.757Z,4.90
2023-02-22T21:34:26.264Z,4.90
2023-02-22T21:36:53.734Z,4.90
2023-02-22T21:39:22.638Z,4.80
2023-02-22T21:41:51.695Z,4.60
2023-02-22T21:44:19.489Z,4.60
2023-02-22T21:46:48.876Z,4.60
2023-02-22T21:49:16.858Z,4.50
2023-02-22T21:51:44.882Z,4.50
2023-02-22T21:54:13.024Z,4.40
2023-02-22T21:56:42.411Z,4.40
2023-02-22T21:59:15.586Z,4.40
2023-02-22T22:01:49.896Z,4.40
2023-02-22T22:04:20.844Z,4.40
2023-02-22T22:06:52.802Z,4.30
2023-02-22T22:09:21.998Z,4.30
2023-02-22T22:11:51.801Z,4.30
2023-02-22T22:14:21.359Z,4.30
2023-02-22T22:16:50.220Z,4.40
2023-02-22T22:19:17.908Z,4.40
2023-02-22T22:21:46.799Z,4.40
2023-02-22T22:24:14.056Z,4.50
2023-02-22T22:26:43.985Z,4.50
2023-02-22T22:29:11.579Z,4.50
2023-02-22T22:31:39.084Z,4.50
2023-02-22T22:34:06.577Z,4.30
2023-02-22T22:36:34.778Z,4.20
2023-02-22T22:39:04.733Z,4.10
2023-02-22T22:41:33.943Z,4.00
2023-02-22T22:44:01.160Z,4.00
2023-02-22T22:46:28.444Z,4.10
2023-02-22T22:48:55.720Z,4.20
2023-02-22T22:51:23.088Z,4.30
2023-02-22T22:53:51.730Z,4.30
2023-02-22T22:56:21.810Z,4.20
2023-02-22T22:58:51.809Z,4.20
2023-02-22T23:01:26.965Z,4.10
2023-02-22T23:03:59.813Z,4.00
2023-02-22T23:06:33.048Z,3.80
2023-02-22T23:09:01.925Z,3.70
2023-02-22T23:11:33.694Z,3.70
2023-02-22T23:14:04.851Z,3.50
2023-02-22T23:16:33.141Z,3.50
2023-02-22T23:19:00.463Z,3.60
2023-02-22T23:21:27.689Z,3.60
2023-02-22T23:23:58.779Z,3.60
2023-02-22T23:26:26.933Z,3.60
2023-02-22T23:28:57.499Z,3.60
2023-02-22T23:31:40.498Z,3.70
2023-02-22T23:34:13.995Z,3.90
2023-02-22T23:36:44.370Z,3.90
2023-02-22T23:39:13.113Z,3.90
2023-02-22T23:41:41.568Z,4.00
2023-02-22T23:44:13.383Z,4.10
2023-02-22T23:46:41.342Z,4.00
2023-02-22T23:49:09.965Z,4.00
2023-02-22T23:51:44.605Z,3.80
2023-02-22T23:54:14.895Z,3.60
2023-02-22T23:56:56.716Z,3.40
2023-02-22T23:59:26.366Z,3.50
